Time;durP1;ratioP1;P1;durP2;ratioP2;P2;SDS_P1;SDS_P2;PMS_P1;PMS_P2;Temp;Humidity;BMP_temperature;BMP_pressure;BME280_temperature;BME280_humidity;BME280_pressure;Samples;Min_cycle;Max_cycle;Signal;HPM_P1;HPM_P2
2022/04/18 00:00:19;;;;;;;0.90;0.63;;;;;;;5.97;81.81;99398.13;5114484;28;20026;-37
2022/04/18 00:02:44;;;;;;;1.08;0.50;;;;;;;5.82;82.02;99406.00;5114640;28;20019;-36
2022/04/18 00:05:10;;;;;;;1.40;0.63;;;;;;;5.70;83.07;99388.97;5114026;28;20048;-37
2022/04/18 00:07:36;;;;;;;0.60;0.60;;;;;;;5.64;83.15;99406.34;5114524;28;20467;-37
2022/04/18 00:10:01;;;;;;;1.17;0.60;;;;;;;5.73;83.20;99399.19;5114158;28;20035;-36
2022/04/18 00:12:28;;;;;;;0.60;0.50;;;;;;;5.49;81.50;99363.25;5114268;28;20058;-36
2022/04/18 00:14:54;;;;;;;0.70;0.63;;;;;;;5.58;82.06;99396.50;5114375;28;20019;-36
2022/04/18 00:17:19;;;;;;;1.70;0.57;;;;;;;5.83;81.85;99394.44;5114276;28;20015;-36
2022/04/18 00:19:45;;;;;;;0.98;0.50;;;;;;;5.87;79.80;99379.06;5114001;28;20051;-37
2022/04/18 00:22:10;;;;;;;0.63;0.40;;;;;;;5.89;80.24;99387.63;5114300;28;20139;-37
2022/04/18 00:24:36;;;;;;;1.40;0.70;;;;;;;5.96;81.62;99395.66;5113731;28;20034;-36
2022/04/18 00:27:01;;;;;;;0.80;0.60;;;;;;;5.90;82.01;99377.84;5114173;28;20333;-37
2022/04/18 00:29:27;;;;;;;1.75;0.60;;;;;;;5.93;82.46;99383.59;5114063;28;20027;-36
2022/04/18 00:31:53;;;;;;;0.80;0.70;;;;;;;5.81;80.97;99383.25;5113797;28;20031;-36
2022/04/18 00:34:18;;;;;;;0.80;0.73;;;;;;;5.81;81.45;99385.88;5112311;28;20075;-36
2022/04/18 00:36:45;;;;;;;1.52;0.80;;;;;;;5.84;82.35;99384.69;5113984;28;20019;-37
2022/04/18 00:39:11;;;;;;;0.88;0.70;;;;;;;5.88;83.44;99375.41;5114125;28;20098;-36
2022/04/18 00:41:36;;;;;;;1.25;1.10;;;;;;;5.79;84.19;99376.50;5113575;28;20038;-37
2022/04/18 00:44:02;;;;;;;1.13;0.90;;;;;;;5.79;84.50;99365.94;5113686;28;20020;-36
2022/04/18 00:46:28;;;;;;;1.58;1.30;;;;;;;5.61;85.54;99361.81;5113596;28;20018;-36
2022/04/18 00:48:54;;;;;;;1.77;1.10;;;;;;;5.70;85.24;99364.38;5113638;28;20106;-36
2022/04/18 00:51:22;;;;;;;1.50;1.17;;;;;;;5.72;84.67;99365.84;5113429;28;20102;-36
2022/04/18 00:53:52;;;;;;;1.88;1.30;;;;;;;5.77;84.57;99367.91;5113582;28;20428;-36
2022/04/18 00:56:18;;;;;;;1.20;1.10;;;;;;;5.81;83.93;99363.94;5113386;28;20028;-36
2022/04/18 00:58:46;;;;;;;2.22;1.35;;;;;;;5.88;84.35;99359.56;5113736;28;20454;-36
2022/04/18 01:01:12;;;;;;;1.40;1.08;;;;;;;5.84;83.69;99360.91;5113351;28;20023;-36
2022/04/18 01:03:38;;;;;;;1.73;1.20;;;;;;;5.98;84.14;99357.50;5113084;28;20058;-36
2022/04/18 01:06:04;;;;;;;1.83;1.05;;;;;;;5.90;83.54;99356.72;5113437;28;20043;-36
2022/04/18 01:08:31;;;;;;;1.20;1.00;;;;;;;5.97;83.50;99358.50;5113029;28;20348;-36
2022/04/18 01:10:57;;;;;;;1.42;1.15;;;;;;;5.83;84.45;99356.66;5113259;28;20046;-36
2022/04/18 01:13:23;;;;;;;1.08;0.98;;;;;;;5.76;84.89;99343.34;5113020;28;20389;-37
2022/04/18 01:15:56;;;;;;;1.95;1.45;;;;;;;5.77;85.25;99346.78;5112772;28;20080;-37
2022/04/18 01:18:22;;;;;;;1.42;1.08;;;;;;;5.88;85.71;99349.81;5113168;28;20047;-37
2022/04/18 01:20:48;;;;;;;1.08;0.98;;;;;;;5.79;85.34;99355.38;5112932;28;20106;-37
2022/04/18 01:23:16;;;;;;;2.08;1.13;;;;;;;5.94;84.37;99347.44;5112836;28;20048;-37
2022/04/18 01:31:09;;;;;;;1.88;1.40;;;;;;;5.87;84.24;99342.88;5113273;28;20583;-37
2022/04/18 01:33:35;;;;;;;1.88;1.40;;;;;;;5.76;84.82;99340.69;5112808;28;20035;-37
2022/04/18 01:36:00;;;;;;;2.10;1.20;;;;;;;5.69;85.69;99334.50;5111645;28;20015;-36
2022/04/18 01:38:25;;;;;;;1.67;1.08;;;;;;;5.87;84.33;99332.31;5112734;28;20019;-37
2022/04/18 01:40:51;;;;;;;1.38;1.10;;;;;;;5.83;85.05;99332.88;5112960;28;20332;-37
2022/04/18 01:43:17;;;;;;;1.98;1.15;;;;;;;5.88;85.06;99323.41;5112572;28;20024;-36
2022/04/18 01:45:42;;;;;;;2.10;1.35;;;;;;;5.75;85.52;99325.03;5111919;28;20012;-36
2022/04/18 01:48:08;;;;;;;1.83;1.30;;;;;;;5.88;85.47;99318.13;5112385;28;20054;-37
2022/04/18 01:50:33;;;;;;;2.42;1.35;;;;;;;5.86;85.43;99325.41;5112411;28;20398;-37
2022/04/18 01:52:59;;;;;;;1.95;1.20;;;;;;;6.01;83.80;99321.97;5112368;28;20046;-37
2022/04/18 01:55:24;;;;;;;1.08;0.95;;;;;;;5.85;83.97;99323.78;5111742;28;20024;-37
2022/04/18 01:57:50;;;;;;;1.20;0.90;;;;;;;5.80;83.87;99320.84;5112315;28;20020;-36
2022/04/18 02:00:15;;;;;;;2.38;1.23;;;;;;;5.84;84.47;99326.59;5112515;28;20331;-36
2022/04/18 02:02:41;;;;;;;1.23;0.98;;;;;;;5.86;83.80;99311.38;5112477;28;20081;-37
2022/04/18 02:05:07;;;;;;;0.80;0.80;;;;;;;5.86;84.00;99312.22;5111825;28;20047;-36
2022/04/18 02:07:33;;;;;;;1.30;1.20;;;;;;;5.85;83.46;99309.75;5111547;28;20035;-36
2022/04/18 02:09:58;;;;;;;1.42;1.08;;;;;;;5.80;83.66;99304.19;5111789;28;20024;-36
2022/04/18 02:12:24;;;;;;;1.40;1.10;;;;;;;5.88;83.39;99304.94;5111836;28;20085;-36
2022/04/18 02:14:49;;;;;;;1.30;1.10;;;;;;;5.97;83.04;99304.84;5111710;28;20102;-37
2022/04/18 02:17:14;;;;;;;1.35;1.08;;;;;;;5.94;82.85;99300.75;5111672;28;20431;-37
2022/04/18 02:19:40;;;;;;;1.88;1.05;;;;;;;5.83;82.83;99296.72;5111782;28;20474;-36
2022/04/18 02:22:05;;;;;;;1.58;1.20;;;;;;;5.75;83.75;99298.63;5112010;28;20043;-37
2022/04/18 02:24:31;;;;;;;1.20;1.10;;;;;;;5.84;82.74;99284.34;5111723;28;20475;-37
2022/04/18 02:26:57;;;;;;;1.30;1.20;;;;;;;5.98;83.12;99291.47;5112022;28;20404;-37
2022/04/18 02:29:23;;;;;;;1.27;1.13;;;;;;;5.93;83.39;99307.00;5111702;28;20114;-37
2022/04/18 02:34:32;;;;;;;1.85;1.05;;;;;;;5.95;83.14;99304.19;5112034;28;20096;-37
2022/04/18 02:36:58;;;;;;;1.50;1.30;;;;;;;5.79;83.28;99303.38;5111661;28;20036;-37
2022/04/18 02:39:23;;;;;;;1.10;1.00;;;;;;;5.91;82.77;99298.44;5111624;28;20028;-36
2022/04/18 02:41:48;;;;;;;2.00;1.40;;;;;;;6.01;81.98;99308.75;5111718;28;20024;-37
2022/04/18 02:44:14;;;;;;;1.48;1.02;;;;;;;5.90;82.51;99304.72;5111340;28;20029;-37
2022/04/18 02:46:39;;;;;;;1.48;1.30;;;;;;;5.77;84.09;99302.75;5111528;28;20015;-37
2022/04/18 02:49:05;;;;;;;1.45;1.20;;;;;;;6.04;83.19;99297.84;5111256;28;20029;-36
2022/04/18 02:51:30;;;;;;;1.45;1.17;;;;;;;5.75;84.57;99311.84;5111785;28;20031;-37
2022/04/18 02:53:55;;;;;;;1.65;1.38;;;;;;;5.63;84.96;99304.38;5111359;28;20112;-37
2022/04/18 02:56:21;;;;;;;1.42;1.27;;;;;;;5.70;85.41;99298.38;5111395;28;20145;-36
2022/04/18 02:58:47;;;;;;;1.95;1.50;;;;;;;5.47;86.61;99300.09;5110975;28;20039;-36
2022/04/18 03:01:13;;;;;;;2.42;1.70;;;;;;;5.55;86.49;99303.66;5111069;28;20392;-36
2022/04/18 03:03:38;;;;;;;3.17;1.55;;;;;;;5.51;86.29;99305.84;5092953;28;20138;-36
2022/04/18 03:06:05;;;;;;;2.20;1.63;;;;;;;5.48;87.02;99301.75;5111349;28;20030;-36
2022/04/18 03:08:31;;;;;;;2.05;1.70;;;;;;;5.55;86.82;99301.81;5111544;28;20059;-36
2022/04/18 03:11:03;;;;;;;2.22;1.67;;;;;;;5.49;87.35;99307.84;5111177;28;20043;-36
2022/04/18 03:13:30;;;;;;;1.92;1.50;;;;;;;5.55;87.11;99308.94;5111364;28;20034;-37
2022/04/18 03:15:56;;;;;;;2.10;1.70;;;;;;;5.67;86.43;99302.19;5110845;28;20023;-37
2022/04/18 03:18:21;;;;;;;4.63;2.20;;;;;;;5.62;86.74;99315.94;5111111;28;20202;-37
2022/04/18 03:20:46;;;;;;;2.30;1.90;;;;;;;5.81;86.08;99306.66;5111119;28;20035;-37
2022/04/18 03:23:12;;;;;;;3.38;1.75;;;;;;;5.80;85.72;99302.38;5111231;28;20028;-37
2022/04/18 03:25:37;;;;;;;2.38;1.75;;;;;;;5.75;85.60;99296.00;5111306;28;20023;-37
2022/04/18 03:28:03;;;;;;;2.80;2.10;;;;;;;5.79;84.51;99303.38;5111176;28;20022;-37
2022/04/18 03:30:29;;;;;;;3.13;2.00;;;;;;;5.65;85.56;99302.41;5111245;28;20028;-37
2022/04/18 03:32:54;;;;;;;2.97;2.08;;;;;;;5.56;86.13;99295.56;5110749;28;20098;-37
2022/04/18 03:35:20;;;;;;;3.95;2.95;;;;;;;5.51;86.25;99286.56;5110935;28;20036;-37
2022/04/18 03:40:29;;;;;;;24.98;15.20;;;;;;;5.58;87.18;99300.63;5111026;28;20401;-37
2022/04/18 03:42:54;;;;;;;22.17;12.27;;;;;;;5.48;87.18;99291.19;5110892;28;20020;-37
2022/04/18 03:45:20;;;;;;;67.53;34.50;;;;;;;5.66;86.22;99296.09;5111756;28;20034;-41
2022/04/18 03:47:45;;;;;;;11.77;6.78;;;;;;;5.76;86.55;99281.81;5111705;28;20524;-38
2022/04/18 03:50:11;;;;;;;3.90;2.47;;;;;;;5.88;86.12;99290.88;5110808;28;20023;-38
2022/04/18 03:52:36;;;;;;;4.35;2.78;;;;;;;5.78;85.65;99285.88;5110902;28;20035;-37
2022/04/18 03:55:02;;;;;;;3.40;2.67;;;;;;;5.84;86.42;99287.78;5111563;28;20024;-38
2022/04/18 03:57:27;;;;;;;3.65;2.90;;;;;;;5.64;86.97;99299.94;5110821;28;20084;-38
2022/04/18 03:59:53;;;;;;;6.47;3.42;;;;;;;5.58;87.59;99292.72;5110422;28;20071;-37
2022/04/18 04:02:18;;;;;;;4.65;3.00;;;;;;;5.76;87.96;99295.00;5110050;28;20020;-37
2022/04/18 04:04:44;;;;;;;5.15;3.60;;;;;;;5.76;86.70;99298.44;5108972;28;20067;-38
2022/04/18 04:07:10;;;;;;;4.45;3.50;;;;;;;5.82;86.91;99304.81;5110574;28;20382;-36
2022/04/18 04:09:36;;;;;;;5.43;2.97;;;;;;;5.84;85.98;99301.00;5112958;28;20028;-37
2022/04/18 04:12:03;;;;;;;3.30;2.67;;;;;;;5.98;85.28;99303.84;5113875;28;20028;-37
2022/04/18 04:14:28;;;;;;;4.43;3.13;;;;;;;5.87;84.93;99298.00;5113561;28;20051;-36
2022/04/18 04:16:54;;;;;;;4.35;3.03;;;;;;;5.75;85.14;99293.34;5113845;28;20058;-36
2022/04/18 04:19:19;;;;;;;10.25;7.25;;;;;;;5.82;85.85;99304.81;5113454;28;20039;-38
2022/04/18 04:21:44;;;;;;;5.22;3.88;;;;;;;5.78;86.56;99301.72;5113978;28;20030;-37
2022/04/18 04:24:10;;;;;;;4.43;2.90;;;;;;;6.01;85.86;99301.66;5113212;28;20031;-37
2022/04/18 04:26:35;;;;;;;9.05;5.95;;;;;;;6.21;85.59;99296.59;5112995;28;20103;-37
2022/04/18 04:29:01;;;;;;;7.15;3.70;;;;;;;6.17;84.82;99298.00;5093841;28;20024;-37
2022/04/18 04:31:26;;;;;;;4.60;2.90;;;;;;;5.89;84.76;99289.91;5100854;28;20486;-37
2022/04/18 04:33:52;;;;;;;3.58;2.30;;;;;;;5.70;85.45;99293.91;5106454;28;20085;-36
2022/04/18 04:36:17;;;;;;;3.83;2.72;;;;;;;5.83;84.77;99299.38;5112869;28;20039;-47
2022/04/18 04:38:43;;;;;;;3.45;2.53;;;;;;;5.86;84.85;99292.88;5113447;28;20031;-45
2022/04/18 04:41:09;;;;;;;4.65;2.50;;;;;;;5.93;85.07;99303.56;5112998;28;20030;-48
2022/04/18 04:43:34;;;;;;;16.40;10.07;;;;;;;6.51;85.13;99290.41;5112688;28;20027;-49
2022/04/18 04:46:02;;;;;;;9.93;6.07;;;;;;;6.97;82.57;99306.72;5111882;28;20020;-50
2022/04/18 04:48:28;;;;;;;3.50;2.65;;;;;;;6.60;83.59;99302.50;5111468;28;20500;-47
2022/04/18 04:50:54;;;;;;;3.83;2.50;;;;;;;6.45;83.71;99298.09;5110587;28;20031;-49
2022/04/18 04:53:19;;;;;;;4.50;2.75;;;;;;;6.45;83.08;99305.19;5111604;28;20047;-47
2022/04/18 04:55:45;;;;;;;3.70;2.90;;;;;;;6.30;84.07;99296.50;5109359;28;20038;-47
2022/04/18 04:58:11;;;;;;;6.35;4.22;;;;;;;6.52;85.14;99311.38;5108379;28;20479;-46
2022/04/18 05:00:38;;;;;;;3.80;2.80;;;;;;;6.49;83.59;99318.84;5109954;28;20045;-48
2022/04/18 05:03:04;;;;;;;4.53;2.88;;;;;;;6.34;84.21;99317.09;5110999;28;20046;-47
2022/04/18 05:05:29;;;;;;;9.05;3.15;;;;;;;6.43;83.63;99315.94;5111262;28;20020;-47
2022/04/18 05:07:55;;;;;;;4.93;3.30;;;;;;;6.44;83.65;99312.31;5111181;28;20190;-49
2022/04/18 05:10:21;;;;;;;4.53;3.17;;;;;;;6.28;84.55;99323.09;5111654;28;20059;-45
2022/04/18 05:12:47;;;;;;;5.82;3.25;;;;;;;6.09;83.84;99313.94;5112304;28;20438;-45
2022/04/18 05:15:13;;;;;;;12.85;7.68;;;;;;;6.13;84.88;99323.16;5112552;28;20024;-48
2022/04/18 05:17:38;;;;;;;15.80;8.85;;;;;;;6.02;85.51;99323.63;5112610;27;20513;-46
2022/04/18 05:20:04;;;;;;;6.20;3.10;;;;;;;6.15;84.27;99320.28;5111931;28;20053;-48
2022/04/18 05:22:30;;;;;;;3.90;2.75;;;;;;;5.97;84.06;99320.69;5112202;28;20020;-46
2022/04/18 05:24:56;;;;;;;4.07;2.97;;;;;;;6.17;84.55;99320.94;5112684;28;20020;-45
2022/04/18 05:27:22;;;;;;;5.10;3.55;;;;;;;6.23;84.72;99321.03;5112589;28;20031;-46
2022/04/18 05:29:48;;;;;;;5.72;3.22;;;;;;;6.37;84.23;99323.81;5111887;28;20019;-46
2022/04/18 05:32:13;;;;;;;6.22;3.40;;;;;;;6.42;83.09;99321.44;5112687;28;20132;-50
2022/04/18 05:34:39;;;;;;;4.30;3.13;;;;;;;6.34;83.18;99321.53;5112073;28;20479;-48
2022/04/18 05:37:05;;;;;;;4.80;3.00;;;;;;;6.19;83.42;99321.59;5112706;28;20024;-46
2022/04/18 05:39:30;;;;;;;6.68;3.40;;;;;;;6.27;82.54;99316.19;5111948;28;20359;-48
2022/04/18 05:41:56;;;;;;;5.25;3.33;;;;;;;6.38;83.42;99333.41;5112538;28;20021;-49
2022/04/18 05:44:22;;;;;;;6.43;3.35;;;;;;;6.24;83.60;99322.69;5111932;28;20022;-47
2022/04/18 05:46:49;;;;;;;5.35;3.40;;;;;;;6.25;84.18;99334.06;5111960;28;20012;-49
2022/04/18 05:49:14;;;;;;;6.45;3.83;;;;;;;6.46;83.69;99330.63;5112084;28;20027;-47
2022/04/18 05:51:40;;;;;;;10.30;4.65;;;;;;;6.59;83.73;99338.72;5111788;28;20123;-46
2022/04/18 05:54:06;;;;;;;6.93;4.13;;;;;;;6.52;83.52;99344.94;5111696;28;20502;-49
2022/04/18 05:56:32;;;;;;;13.00;7.65;;;;;;;6.47;83.39;99334.91;5112075;28;20020;-46
2022/04/18 05:58:58;;;;;;;15.77;9.77;;;;;;;6.37;83.90;99340.50;5111475;28;20038;-46
2022/04/18 06:01:24;;;;;;;6.22;4.70;;;;;;;6.50;85.19;99339.81;5111497;28;20547;-47
2022/04/18 06:03:49;;;;;;;4.85;3.17;;;;;;;6.87;84.27;99343.25;5111424;28;20043;-45
2022/04/18 06:06:15;;;;;;;5.47;2.97;;;;;;;7.06;82.81;99341.78;5111525;28;20032;-45
2022/04/18 06:08:41;;;;;;;7.47;3.55;;;;;;;7.12;82.05;99338.41;5111953;28;20424;-46
2022/04/18 06:11:07;;;;;;;5.65;3.63;;;;;;;7.42;82.54;99338.19;5111114;28;20096;-46
2022/04/18 06:13:33;;;;;;;6.88;3.70;;;;;;;7.35;81.22;99338.16;5111578;28;20028;-47
2022/04/18 06:15:58;;;;;;;7.95;3.72;;;;;;;7.21;80.61;99333.78;5111540;28;20020;-46
2022/04/18 06:18:24;;;;;;;6.65;3.42;;;;;;;7.32;81.01;99343.03;5111946;28;20038;-46
2022/04/18 06:20:49;;;;;;;5.72;3.40;;;;;;;7.24;81.43;99344.00;5111616;28;20045;-47
2022/04/18 06:23:16;;;;;;;5.93;3.35;;;;;;;7.12;81.17;99348.97;5111388;28;20042;-47
2022/04/18 06:25:42;;;;;;;8.13;3.45;;;;;;;6.97;80.13;99349.06;5111219;28;20187;-47
2022/04/18 06:28:08;;;;;;;6.68;3.50;;;;;;;7.01;79.73;99358.25;5111574;28;20020;-50
2022/04/18 06:30:33;;;;;;;6.50;3.20;;;;;;;6.89;80.17;99349.16;5111906;28;20027;-47
2022/04/18 06:32:59;;;;;;;4.60;2.58;;;;;;;6.92;80.81;99359.38;5110438;28;20038;-47
2022/04/18 06:35:24;;;;;;;202.65;65.18;;;;;;;6.91;83.20;99348.97;5111344;28;20024;-47
2022/04/18 06:37:50;;;;;;;34.05;13.40;;;;;;;6.90;82.16;99358.75;5111738;28;20500;-49
2022/04/18 06:40:15;;;;;;;5.72;3.60;;;;;;;6.93;80.90;99363.66;5111327;28;20035;-48
2022/04/18 06:42:40;;;;;;;26.88;14.73;;;;;;;6.82;80.96;99364.97;5111458;28;20102;-49
2022/04/18 06:45:06;;;;;;;7.82;4.25;;;;;;;7.16;80.02;99355.53;5110800;28;20159;-49
2022/04/18 06:47:32;;;;;;;6.75;3.47;;;;;;;7.33;79.80;99361.38;5111410;28;20084;-47
2022/04/18 06:49:57;;;;;;;3.95;2.70;;;;;;;7.02;79.22;99364.34;5111024;28;20039;-47
2022/04/18 06:52:22;;;;;;;4.50;2.70;;;;;;;7.34;79.15;99360.34;5111289;28;20031;-47
2022/04/18 06:54:49;;;;;;;6.70;4.32;;;;;;;7.35;79.24;99364.63;5110073;28;20103;-46
2022/04/18 06:57:16;;;;;;;47.30;28.25;;;;;;;7.23;78.73;99361.69;5110740;28;20482;-46
2022/04/18 06:59:42;;;;;;;7.05;3.20;;;;;;;7.40;77.85;99369.34;5110680;28;20025;-48
2022/04/18 07:02:08;;;;;;;59.33;33.55;;;;;;;7.40;77.85;99374.66;5110433;28;20043;-48
2022/04/18 07:04:34;;;;;;;8.13;4.88;;;;;;;7.36;77.42;99374.19;5110448;28;20059;-50
2022/04/18 07:07:00;;;;;;;5.00;3.13;;;;;;;7.27;76.11;99372.69;5110929;28;20024;-48
2022/04/18 07:09:25;;;;;;;9.23;5.47;;;;;;;7.26;77.17;99375.56;5092579;28;20038;-49
2022/04/18 07:11:51;;;;;;;9.75;5.60;;;;;;;7.11;77.40;99357.91;5110712;28;20536;-48
2022/04/18 07:14:17;;;;;;;5.70;3.05;;;;;;;7.35;77.07;99377.88;5110774;28;20031;-47
2022/04/18 07:16:44;;;;;;;5.13;2.40;;;;;;;7.50;75.42;99385.75;5110671;28;20115;-49
2022/04/18 07:19:10;;;;;;;5.22;2.45;;;;;;;7.60;74.71;99380.09;5110842;28;20034;-47
2022/04/18 07:21:36;;;;;;;3.63;2.20;;;;;;;7.31;75.79;99387.22;5110642;28;20026;-46
2022/04/18 07:24:02;;;;;;;3.90;2.75;;;;;;;7.19;76.15;99386.88;5110404;28;20019;-47
2022/04/18 07:26:27;;;;;;;5.03;2.67;;;;;;;7.15;76.83;99380.34;5110676;28;20058;-46
2022/04/18 07:28:53;;;;;;;3.20;2.00;;;;;;;7.00;78.72;99384.88;5111362;28;20391;-48
2022/04/18 07:31:18;;;;;;;4.10;2.50;;;;;;;7.13;77.79;99385.00;5111336;28;20019;-48
2022/04/18 07:33:44;;;;;;;4.40;2.17;;;;;;;7.20;77.16;99387.72;5093300;28;20470;-47
2022/04/18 07:36:10;;;;;;;19.45;11.68;;;;;;;7.15;76.79;99388.28;5110830;28;20044;-48
2022/04/18 07:38:50;;;;;;;11.00;6.97;;;;;;;7.41;75.67;99395.63;5111194;28;20328;-50
2022/04/18 07:41:21;;;;;;;6.22;3.47;;;;;;;7.20;74.71;99395.66;5111253;28;20050;-48
2022/04/18 07:43:47;;;;;;;4.70;2.70;;;;;;;7.10;76.27;99396.00;5112082;28;20111;-48
2022/04/18 07:46:15;;;;;;;4.00;2.40;;;;;;;7.22;77.19;99393.66;5114598;28;20023;-46
2022/04/18 07:48:41;;;;;;;4.82;2.90;;;;;;;7.38;77.47;99403.13;5111750;28;20076;-46
2022/04/18 07:53:51;;;;;;;3.33;2.10;;;;;;;7.32;74.78;99395.97;5113642;28;20039;-49
2022/04/18 07:56:16;;;;;;;5.07;2.38;;;;;;;7.51;76.06;99403.25;5114555;28;20119;-47
2022/04/18 07:58:42;;;;;;;3.80;2.40;;;;;;;7.40;75.31;99399.28;5113113;28;20024;-48
2022/04/18 08:01:07;;;;;;;3.33;2.03;;;;;;;7.15;77.21;99406.81;5114052;28;20034;-46
2022/04/18 08:03:34;;;;;;;3.17;2.55;;;;;;;7.07;78.10;99412.22;5114041;28;20051;-47
2022/04/18 08:06:00;;;;;;;3.05;1.90;;;;;;;6.95;78.57;99411.91;5095528;28;20038;-47
2022/04/18 08:08:25;;;;;;;2.50;2.17;;;;;;;7.04;78.27;99413.44;5113912;28;20036;-47
2022/04/18 08:10:51;;;;;;;2.75;2.00;;;;;;;6.99;78.10;99418.47;5114014;28;20035;-48
2022/04/18 08:13:16;;;;;;;3.22;2.10;;;;;;;6.98;77.20;99406.22;5114341;28;20038;-46
2022/04/18 08:15:42;;;;;;;2.03;1.70;;;;;;;7.03;76.81;99403.03;5114188;28;20538;-47
2022/04/18 08:18:07;;;;;;;2.45;1.80;;;;;;;7.00;77.32;99422.72;5114090;28;20495;-45
2022/04/18 08:20:33;;;;;;;2.80;1.55;;;;;;;7.02;77.01;99417.25;5113697;28;20024;-46
2022/04/18 08:22:59;;;;;;;2.70;1.80;;;;;;;6.92;77.18;99414.13;5113654;28;20019;-46
2022/04/18 08:25:24;;;;;;;2.38;1.70;;;;;;;7.20;76.83;99416.84;5113545;28;20023;-46
2022/04/18 08:27:50;;;;;;;3.65;2.08;;;;;;;7.15;76.61;99424.53;5113190;28;20038;-45
2022/04/18 08:30:15;;;;;;;3.92;2.42;;;;;;;7.06;77.79;99426.44;5113121;28;20439;-45
2022/04/18 08:32:41;;;;;;;2.50;2.00;;;;;;;7.00;75.85;99419.28;5113485;28;20050;-45
2022/04/18 08:35:08;;;;;;;3.90;1.88;;;;;;;6.83;76.28;99419.53;5111898;28;20050;-45
2022/04/18 08:37:34;;;;;;;4.78;2.00;;;;;;;6.73;77.86;99420.81;5109043;28;20031;-46
2022/04/18 08:40:01;;;;;;;3.17;2.15;;;;;;;6.77;78.34;99432.66;5111540;28;20149;-45
2022/04/18 08:42:32;;;;;;;3.33;2.00;;;;;;;6.94;77.90;99425.31;5111999;28;20383;-46
2022/04/18 08:44:58;;;;;;;2.65;2.10;;;;;;;6.97;77.20;99432.91;5112871;28;20059;-47
2022/04/18 08:52:53;;;;;;;2.67;2.15;;;;;;;6.89;78.59;99439.09;5113058;28;20416;-45
2022/04/18 08:55:19;;;;;;;3.15;2.20;;;;;;;7.07;77.91;99438.69;5112119;28;20035;-46
2022/04/18 08:57:45;;;;;;;2.47;2.05;;;;;;;7.08;76.59;99436.84;5113201;28;20092;-46
2022/04/18 09:00:12;;;;;;;4.00;2.60;;;;;;;6.97;78.24;99444.28;5113188;28;20023;-46
2022/04/18 09:02:38;;;;;;;3.50;2.30;;;;;;;7.02;75.97;99441.06;5112692;28;20035;-45
2022/04/18 09:05:08;;;;;;;7.65;3.88;;;;;;;7.19;75.26;99434.53;5112533;28;20048;-46
2022/04/18 09:07:33;;;;;;;;;;;;;;;7.11;74.44;99441.78;5113037;28;20047;-48
2022/04/18 09:09:59;;;;;;;4.05;2.97;;;;;;;7.08;75.21;99447.44;5111530;28;20345;-46
2022/04/18 09:12:27;;;;;;;6.82;4.20;;;;;;;6.93;75.39;99443.03;5111602;28;20034;-43
2022/04/18 09:14:53;;;;;;;2.63;2.10;;;;;;;6.49;74.05;99443.91;5112196;28;20058;-45
2022/04/18 09:17:35;;;;;;;3.72;2.70;;;;;;;6.45;76.71;99453.22;5112246;28;20431;-46
2022/04/18 09:20:08;;;;;;;4.65;2.97;;;;;;;6.11;79.69;99451.13;5112404;28;20471;-50
2022/04/18 09:22:47;;;;;;;5.57;3.60;;;;;;;6.07;78.75;99446.22;5111670;28;20024;-45
2022/04/18 09:25:20;;;;;;;2.45;2.20;;;;;;;6.22;78.18;99448.84;5112288;28;20023;-46
2022/04/18 09:27:57;;;;;;;3.95;2.40;;;;;;;6.08;79.08;99452.31;5112399;28;20022;-44
2022/04/18 09:30:24;;;;;;;3.47;2.55;;;;;;;6.10;79.90;99447.69;5112361;28;20028;-45
2022/04/18 09:33:01;;;;;;;2.88;2.20;;;;;;;6.32;78.09;99447.75;5111859;28;20031;-45
2022/04/18 09:35:28;;;;;;;4.03;2.47;;;;;;;6.13;78.84;99455.25;5111035;28;20024;-45
2022/04/18 09:38:00;;;;;;;4.03;3.00;;;;;;;6.41;77.75;99454.59;5112551;28;20077;-46
2022/04/18 09:40:25;;;;;;;4.97;2.70;;;;;;;6.53;76.42;99454.94;5112437;28;20110;-46
2022/04/18 09:42:53;;;;;;;4.00;2.75;;;;;;;6.49;77.65;99453.69;5111746;28;20110;-45
2022/04/18 09:45:18;;;;;;;3.40;3.10;;;;;;;6.18;78.31;99454.69;5111383;28;20036;-45
2022/04/18 09:47:44;;;;;;;3.33;2.90;;;;;;;6.48;76.75;99449.41;5111787;28;20020;-46
2022/04/18 09:50:59;;;;;;;4.25;2.90;;;;;;;6.45;77.08;99446.13;5111922;28;20395;-43
2022/04/18 09:53:05;;;;;;;4.15;3.00;;;;;;;6.51;78.74;99446.38;5110784;28;20118;-45
2022/04/18 09:55:30;;;;;;;4.35;3.03;;;;;;;6.55;78.96;99447.66;5111210;28;20066;-47
2022/04/18 09:58:02;;;;;;;3.83;2.88;;;;;;;6.86;77.76;99455.34;5110817;28;20055;-46
2022/04/18 10:00:28;;;;;;;3.20;2.90;;;;;;;6.82;77.58;99448.81;5111555;28;20098;-46
2022/04/18 10:02:53;;;;;;;3.67;3.05;;;;;;;6.84;77.67;99444.16;5111605;28;20472;-45
2022/04/18 10:05:19;;;;;;;4.47;3.15;;;;;;;7.04;77.93;99452.28;5111325;28;20068;-46
2022/04/18 10:07:47;;;;;;;3.05;2.72;;;;;;;7.20;76.94;99454.69;5111299;28;20023;-46
2022/04/18 10:10:13;;;;;;;3.90;3.38;;;;;;;7.29;76.08;99462.50;5111215;28;20099;-45
2022/04/18 10:12:38;;;;;;;3.30;2.95;;;;;;;7.18;75.68;99466.50;5111257;28;20027;-46
2022/04/18 10:15:05;;;;;;;4.00;3.38;;;;;;;7.15;76.25;99453.63;5111301;28;20028;-45
2022/04/18 10:17:32;;;;;;;4.55;3.40;;;;;;;7.08;74.57;99450.91;5111453;28;20106;-45
2022/04/18 10:20:14;;;;;;;4.75;3.53;;;;;;;7.04;77.06;99460.22;5111519;28;20058;-46
2022/04/18 10:22:45;;;;;;;5.18;3.38;;;;;;;6.81;75.93;99450.59;5110396;28;20019;-48
2022/04/18 10:25:21;;;;;;;6.43;3.78;;;;;;;6.95;78.45;99454.25;5110793;28;20076;-46
2022/04/18 10:28:14;;;;;;;4.68;3.70;;;;;;;7.12;79.15;99456.63;5110763;28;20028;-48
2022/04/18 10:31:01;;;;;;;5.80;3.58;;;;;;;7.12;78.70;99454.00;5107107;28;20035;-45
2022/04/18 10:33:28;;;;;;;3.95;3.30;;;;;;;7.16;76.40;99452.59;5111217;28;20030;-50
2022/04/18 10:36:04;;;;;;;4.65;3.60;;;;;;;7.24;78.02;99447.22;5111114;28;20032;-45
2022/04/18 10:38:40;;;;;;;4.40;3.35;;;;;;;7.44;78.79;99450.03;5110714;28;20066;-46
2022/04/18 10:41:39;;;;;;;5.53;3.30;;;;;;;7.55;78.92;99448.69;5110476;28;20020;-47
2022/04/18 10:44:08;;;;;;;4.18;3.40;;;;;;;7.54;74.67;99444.41;5110756;28;20031;-46
2022/04/18 10:46:39;;;;;;;2.83;2.40;;;;;;;7.43;73.06;99446.56;5110957;28;20098;-49
2022/04/18 10:49:15;;;;;;;3.03;2.13;;;;;;;7.47;71.31;99440.91;5110725;28;20035;-49
2022/04/18 10:51:41;;;;;;;3.05;2.50;;;;;;;7.27;74.36;99446.81;5110531;28;20096;-46
2022/04/18 10:54:20;;;;;;;4.25;2.60;;;;;;;7.33;74.36;99440.78;5110472;28;20611;-45
2022/04/18 10:57:01;;;;;;;3.60;2.50;;;;;;;7.29;74.26;99434.22;5110394;28;20540;-46
2022/04/18 10:59:33;;;;;;;;;;;;;;;7.60;74.81;99449.78;5111438;28;20034;-48
2022/04/18 11:02:04;;;;;;;3.00;2.60;;;;;;;7.27;76.74;99446.81;5110791;28;19912;-48
2022/04/18 11:04:33;;;;;;;4.18;2.70;;;;;;;7.13;75.41;99442.41;5110157;28;20560;-48
2022/04/18 11:07:03;;;;;;;3.17;2.88;;;;;;;7.37;74.70;99436.75;5110701;28;20027;-48
2022/04/18 11:09:31;;;;;;;11.60;7.93;;;;;;;7.62;77.24;99436.34;5110728;28;20118;-47
2022/04/18 11:12:06;;;;;;;4.25;2.70;;;;;;;7.54;75.00;99426.72;5110904;28;20016;-50
2022/04/18 11:14:40;;;;;;;2.60;2.08;;;;;;;7.63;69.59;99445.91;5110741;28;20019;-46
2022/04/18 11:17:09;;;;;;;2.40;2.00;;;;;;;7.67;69.82;99438.41;5110100;28;20111;-47
2022/04/18 11:19:40;;;;;;;2.13;1.90;;;;;;;7.76;70.71;99442.56;5110083;28;20519;-50
2022/04/18 11:22:14;;;;;;;2.00;1.45;;;;;;;7.46;69.74;99440.06;5110230;28;20031;-47
2022/04/18 11:24:51;;;;;;;2.10;1.70;;;;;;;7.42;72.10;99444.94;5110157;28;20083;-47
2022/04/18 11:27:17;;;;;;;1.85;1.67;;;;;;;7.41;72.46;99440.66;5110136;28;20028;-48
2022/04/18 11:29:51;;;;;;;2.00;1.80;;;;;;;7.47;72.67;99438.25;5110413;28;20542;-46
2022/04/18 11:32:18;;;;;;;2.08;1.83;;;;;;;7.11;74.03;99423.25;5110506;28;20019;-47
2022/04/18 11:34:47;;;;;;;2.20;1.77;;;;;;;7.14;73.77;99436.94;5110307;28;20475;-47
2022/04/18 11:37:40;;;;;;;1.88;1.67;;;;;;;6.93;75.16;99437.75;5110242;28;20055;-47
2022/04/18 11:40:16;;;;;;;2.10;1.90;;;;;;;7.08;74.76;99444.78;5109833;28;20081;-50
2022/04/18 11:42:44;;;;;;;1.92;1.60;;;;;;;7.11;74.14;99433.84;5110167;28;20011;-49
2022/04/18 11:45:23;;;;;;;2.67;1.95;;;;;;;7.05;75.56;99428.28;5091692;28;20386;-47
2022/04/18 11:47:48;;;;;;;2.42;1.95;;;;;;;6.85;76.25;99425.44;5110219;28;20505;-49
2022/04/18 11:50:23;;;;;;;2.60;2.15;;;;;;;6.83;77.87;99424.81;5110510;28;20032;-46
2022/04/18 11:53:00;;;;;;;2.47;2.10;;;;;;;7.00;78.11;99419.28;5110218;28;20019;-45
2022/04/18 11:55:25;;;;;;;2.35;2.00;;;;;;;6.90;77.59;99418.78;5110318;28;20024;-47
2022/04/18 11:57:50;;;;;;;4.47;2.30;;;;;;;7.41;78.38;99429.25;5110452;28;20092;-46
2022/04/18 12:06:44;;;;;;;3.38;2.30;;;;;;;7.17;76.96;99428.59;5110723;28;20028;-47